createdAt,value
2019-04-09T00:00:57.642Z,15.93
2019-04-09T00:05:08.428Z,14.90
2019-04-09T00:09:18.788Z,76.53
2019-04-09T00:13:28.448Z,20.30
2019-04-09T00:17:38.456Z,16.70
2019-04-09T00:21:49.971Z,16.57
2019-04-09T00:26:00.066Z,16.97
2019-04-09T00:30:11.260Z,16.00
2019-04-09T00:34:21.732Z,15.93
2019-04-09T00:38:31.457Z,16.90
2019-04-09T00:42:41.383Z,16.60
2019-04-09T00:46:51.455Z,14.30
2019-04-09T00:51:01.265Z,16.63
2019-04-09T00:55:12.802Z,16.60
2019-04-09T00:59:23.963Z,17.83
2019-04-09T01:03:34.467Z,18.23
2019-04-09T01:07:45.485Z,16.93
2019-04-09T01:11:56.207Z,12.50
2019-04-09T01:16:05.346Z,11.30
2019-04-09T01:20:17.845Z,9.33
2019-04-09T01:24:34.093Z,9.13
2019-04-09T01:28:51.293Z,8.03
2019-04-09T01:33:22.576Z,7.30
2019-04-09T01:37:50.478Z,6.80
2019-04-09T01:42:18.476Z,6.10
2019-04-09T01:46:45.161Z,5.53
2019-04-09T01:51:15.639Z,4.90
2019-04-09T01:55:31.634Z,4.10
2019-04-09T02:00:04.939Z,4.40
2019-04-09T02:04:32.566Z,3.80
2019-04-09T02:09:09.284Z,4.00
2019-04-09T02:13:32.747Z,3.90
2019-04-09T02:18:07.258Z,3.20
2019-04-09T02:22:27.277Z,3.63
2019-04-09T02:27:13.020Z,3.43
2019-04-09T02:31:49.080Z,3.10
2019-04-09T02:36:15.817Z,2.80
2019-04-09T02:40:46.524Z,3.10
2019-04-09T02:45:05.138Z,2.77
2019-04-09T02:49:30.981Z,2.63
2019-04-09T02:53:51.600Z,2.47
2019-04-09T02:58:21.449Z,2.53
2019-04-09T03:02:46.251Z,2.33
2019-04-09T03:07:13.694Z,2.57
2019-04-09T03:11:42.215Z,2.90
2019-04-09T03:16:19.231Z,2.50
2019-04-09T03:20:36.799Z,2.83
2019-04-09T03:25:10.574Z,2.20
2019-04-09T03:29:52.857Z,2.60
2019-04-09T03:34:21.029Z,2.53
2019-04-09T03:38:51.075Z,2.50
2019-04-09T03:43:16.715Z,1.97
2019-04-09T03:47:44.113Z,2.77
2019-04-09T03:52:10.779Z,2.27
2019-04-09T03:56:38.637Z,2.23
2019-04-09T04:01:06.044Z,2.80
2019-04-09T04:05:32.279Z,2.90
2019-04-09T04:10:00.492Z,3.07
2019-04-09T04:14:43.697Z,2.37
2019-04-09T04:19:13.793Z,2.43
2019-04-09T04:23:46.265Z,2.37
2019-04-09T04:28:24.539Z,2.47
2019-04-09T04:32:39.930Z,2.87
2019-04-09T04:37:14.741Z,2.37
2019-04-09T04:41:45.168Z,1.97
2019-04-09T04:46:13.146Z,2.63
2019-04-09T04:50:43.929Z,2.40
2019-04-09T04:55:16.948Z,2.37
2019-04-09T04:59:33.954Z,2.30
2019-04-09T05:03:51.179Z,2.37
2019-04-09T05:08:13.714Z,2.70
2019-04-09T05:12:44.214Z,2.70
2019-04-09T05:17:12.312Z,2.00
2019-04-09T05:21:38.146Z,2.20
2019-04-09T05:26:15.844Z,2.70
2019-04-09T05:30:41.305Z,2.13
2019-04-09T05:35:12.692Z,2.27
2019-04-09T05:39:36.979Z,2.43
2019-04-09T05:44:00.687Z,2.13
2019-04-09T05:48:21.913Z,2.00
2019-04-09T05:52:45.020Z,2.40
2019-04-09T05:57:07.321Z,2.37
2019-04-09T06:01:38.442Z,2.37
2019-04-09T06:05:58.727Z,2.17
2019-04-09T06:10:09.261Z,2.33
2019-04-09T06:14:19.121Z,1.97
2019-04-09T06:18:28.367Z,2.37
2019-04-09T06:22:37.865Z,2.40
2019-04-09T06:26:47.332Z,2.20
2019-04-09T06:30:56.710Z,1.90
2019-04-09T06:35:21.590Z,1.77
2019-04-09T06:39:43.126Z,1.90
2019-04-09T06:44:05.410Z,2.03
2019-04-09T06:48:33.344Z,2.20
2019-04-09T06:53:06.665Z,1.90
2019-04-09T06:57:32.491Z,2.30
2019-04-09T07:01:50.737Z,2.60
2019-04-09T07:06:30.428Z,2.30
2019-04-09T07:11:12.663Z,2.03
2019-04-09T07:15:49.230Z,2.17
2019-04-09T07:20:28.445Z,1.93
2019-04-09T07:24:56.346Z,2.20
2019-04-09T07:29:20.416Z,2.47
2019-04-09T07:33:49.410Z,2.20
2019-04-09T07:38:18.427Z,1.70
2019-04-09T07:42:46.779Z,2.33
2019-04-09T07:47:13.663Z,1.93
2019-04-09T07:51:50.946Z,2.63
2019-04-09T07:56:21.717Z,2.70
2019-04-09T08:00:37.062Z,2.50
2019-04-09T08:05:02.937Z,2.60
2019-04-09T08:09:31.918Z,2.50
2019-04-09T08:13:57.908Z,2.40
2019-04-09T08:18:19.099Z,2.77
2019-04-09T08:22:38.987Z,2.07
2019-04-09T08:27:11.163Z,2.20
2019-04-09T08:31:37.400Z,2.57
2019-04-09T08:36:13.121Z,2.10
2019-04-09T08:40:50.779Z,2.30
2019-04-09T08:45:26.356Z,2.57
2019-04-09T08:49:44.863Z,2.50
2019-04-09T08:54:10.181Z,3.37
2019-04-09T08:58:40.198Z,15.63
2019-04-09T09:03:10.753Z,11.23
2019-04-09T09:07:41.006Z,12.53
2019-04-09T09:12:06.830Z,11.70
2019-04-09T09:16:32.945Z,8.93
2019-04-09T09:20:58.189Z,6.47
2019-04-09T09:25:26.578Z,7.10
2019-04-09T09:29:41.554Z,6.93
2019-04-09T09:34:08.601Z,5.37
2019-04-09T09:38:37.668Z,6.20
2019-04-09T09:43:03.627Z,4.20
2019-04-09T09:47:29.021Z,6.20
2019-04-09T09:52:02.645Z,6.90
2019-04-09T09:56:35.629Z,6.57
2019-04-09T10:01:23.884Z,5.20
2019-04-09T10:05:51.698Z,5.90
2019-04-09T10:10:21.051Z,6.63
2019-04-09T10:15:08.824Z,6.10
2019-04-09T10:19:33.814Z,6.10
2019-04-09T10:24:10.107Z,5.83
2019-04-09T10:28:47.350Z,5.33
2019-04-09T10:33:22.913Z,5.90
2019-04-09T10:37:36.827Z,6.00
2019-04-09T10:41:54.186Z,4.50
2019-04-09T10:46:30.018Z,3.87
2019-04-09T10:50:54.514Z,5.20
2019-04-09T10:55:37.506Z,5.63
2019-04-09T11:00:16.363Z,5.40
2019-04-09T11:04:35.698Z,7.40
2019-04-09T11:08:55.136Z,33.10
2019-04-09T11:13:13.759Z,22.63
2019-04-09T11:17:38.264Z,19.50
2019-04-09T11:21:58.470Z,20.97
2019-04-09T11:26:43.911Z,21.00
2019-04-09T11:31:09.986Z,19.37
2019-04-09T11:35:36.628Z,20.47
2019-04-09T11:40:09.298Z,18.87
2019-04-09T11:44:37.333Z,20.03
2019-04-09T11:49:14.050Z,19.83
2019-04-09T11:53:48.161Z,19.27
2019-04-09T11:58:04.030Z,19.47
2019-04-09T12:02:22.260Z,19.90
2019-04-09T12:06:55.969Z,19.50
2019-04-09T12:11:38.864Z,19.10
2019-04-09T12:16:03.023Z,18.97
2019-04-09T12:20:40.349Z,16.93
2019-04-09T12:24:57.728Z,17.00
2019-04-09T12:29:23.695Z,16.90
2019-04-09T12:33:50.215Z,17.60
2019-04-09T12:38:51.589Z,18.07
2019-04-09T12:48:28.693Z,18.73
2019-04-09T12:52:53.260Z,18.90
2019-04-09T12:57:23.833Z,19.07
2019-04-09T13:01:53.943Z,18.70
2019-04-09T13:06:16.257Z,17.80
2019-04-09T13:10:42.290Z,17.77
2019-04-09T13:15:12.873Z,18.93
2019-04-09T13:19:29.207Z,18.10
2019-04-09T13:23:58.893Z,19.40
2019-04-09T13:28:24.193Z,17.87
2019-04-09T13:32:45.201Z,18.97
2019-04-09T13:37:02.233Z,17.60
2019-04-09T13:41:36.060Z,16.80
2019-04-09T13:46:06.809Z,16.67
2019-04-09T13:50:46.489Z,17.00
2019-04-09T13:54:55.797Z,325.47
2019-04-09T13:59:04.720Z,145.37
2019-04-09T14:03:37.091Z,57.00
2019-04-09T14:07:42.249Z,61.20
2019-04-09T14:11:52.405Z,58.20
2019-04-09T14:16:01.163Z,52.10
2019-04-09T14:20:11.595Z,53.80
2019-04-09T14:24:20.783Z,51.07
2019-04-09T14:28:29.958Z,44.50
2019-04-09T14:32:39.217Z,53.37
2019-04-09T14:36:48.712Z,224.13
2019-04-09T14:40:58.537Z,76.73
2019-04-09T14:45:07.410Z,52.60
2019-04-09T14:49:18.391Z,48.93
2019-04-09T14:53:26.228Z,45.70
2019-04-09T14:57:34.727Z,45.83
2019-04-09T15:01:44.428Z,39.10
2019-04-09T15:05:53.224Z,40.90
2019-04-09T15:10:01.725Z,40.03
2019-04-09T15:14:10.238Z,37.60
2019-04-09T15:18:19.675Z,36.77
2019-04-09T15:22:28.867Z,36.17
2019-04-09T15:26:38.482Z,36.33
2019-04-09T15:30:47.959Z,39.10
2019-04-09T15:34:57.997Z,39.90
2019-04-09T15:39:09.429Z,41.60
2019-04-09T15:43:18.269Z,43.47
2019-04-09T15:47:27.464Z,38.53
2019-04-09T15:51:36.041Z,42.13
2019-04-09T15:55:45.703Z,41.43
2019-04-09T15:59:55.199Z,43.90
2019-04-09T16:04:05.235Z,42.23
2019-04-09T16:08:13.785Z,46.40
2019-04-09T16:12:22.879Z,44.10
2019-04-09T16:16:31.915Z,46.10
2019-04-09T16:20:40.889Z,43.40
2019-04-09T16:24:50.856Z,46.47
2019-04-09T16:29:00.419Z,42.80
2019-04-09T16:33:12.923Z,44.23
2019-04-09T16:37:19.459Z,42.90
2019-04-09T16:41:29.872Z,45.27
2019-04-09T16:45:39.650Z,46.20
2019-04-09T16:49:48.315Z,45.63
2019-04-09T16:53:57.830Z,41.87
2019-04-09T16:58:08.474Z,42.00
2019-04-09T17:02:16.485Z,42.93
2019-04-09T17:06:25.271Z,47.33
2019-04-09T17:10:35.820Z,46.83
2019-04-09T17:14:44.379Z,45.53
2019-04-09T17:18:53.123Z,48.20
2019-04-09T17:23:03.026Z,46.10
2019-04-09T17:27:11.786Z,45.63
2019-04-09T17:31:23.189Z,45.20
2019-04-09T17:35:31.155Z,50.93
2019-04-09T17:39:39.920Z,50.57
2019-04-09T17:43:48.520Z,52.10
2019-04-09T17:47:57.298Z,50.60
2019-04-09T17:52:05.995Z,51.90
2019-04-09T17:56:16.435Z,50.90
2019-04-09T18:00:25.612Z,48.83
2019-04-09T18:04:43.115Z,54.13
2019-04-09T18:08:44.536Z,51.63
2019-04-09T18:12:53.098Z,56.33
2019-04-09T18:17:02.617Z,55.70
2019-04-09T18:21:11.142Z,51.50
2019-04-09T18:25:19.864Z,56.03
2019-04-09T18:29:29.334Z,48.90
2019-04-09T18:33:38.481Z,45.00
2019-04-09T18:37:48.299Z,49.10
2019-04-09T18:41:57.158Z,46.43
2019-04-09T18:46:05.897Z,41.30
2019-04-09T18:50:14.775Z,42.90
2019-04-09T18:54:23.891Z,43.50
2019-04-09T18:58:32.754Z,44.03
2019-04-09T19:02:41.246Z,40.30
2019-04-09T19:06:50.450Z,40.57
2019-04-09T19:10:59.349Z,39.60
2019-04-09T19:15:08.573Z,39.60
2019-04-09T19:19:18.300Z,38.23
2019-04-09T19:23:29.670Z,34.47
2019-04-09T19:27:37.009Z,32.63
2019-04-09T19:31:46.172Z,31.93
2019-04-09T19:35:55.524Z,28.37
2019-04-09T19:40:14.098Z,27.87
2019-04-09T19:44:23.168Z,23.20
2019-04-09T19:48:32.486Z,23.47
2019-04-09T19:52:41.017Z,18.27
2019-04-09T19:56:49.593Z,20.03
2019-04-09T20:00:57.970Z,19.53
2019-04-09T20:05:07.839Z,17.93
2019-04-09T20:09:19.798Z,17.90
2019-04-09T20:13:28.771Z,16.80
2019-04-09T20:17:37.283Z,16.50
2019-04-09T20:21:46.445Z,17.40
2019-04-09T20:25:55.741Z,16.00
2019-04-09T20:30:05.773Z,15.27
2019-04-09T20:34:14.183Z,15.63
2019-04-09T20:38:22.908Z,13.40
2019-04-09T20:42:31.313Z,13.80
2019-04-09T20:46:40.122Z,13.17
2019-04-09T20:50:48.749Z,13.90
2019-04-09T20:55:00.817Z,12.10
2019-04-09T20:59:35.606Z,12.93
2019-04-09T21:03:53.562Z,12.80
2019-04-09T21:07:54.256Z,12.90
2019-04-09T21:12:03.012Z,14.17
2019-04-09T21:16:12.027Z,13.33
2019-04-09T21:20:21.097Z,13.40
2019-04-09T21:24:29.510Z,12.53
2019-04-09T21:28:38.510Z,13.17
2019-04-09T21:32:47.054Z,11.27
2019-04-09T21:36:55.835Z,12.50
2019-04-09T21:41:05.138Z,11.43
2019-04-09T21:45:14.071Z,11.80
2019-04-09T21:49:24.194Z,12.20
2019-04-09T21:53:33.397Z,11.13
2019-04-09T21:57:42.025Z,12.77
2019-04-09T22:01:51.714Z,11.33
2019-04-09T22:06:01.024Z,12.27
2019-04-09T22:10:10.106Z,11.23
2019-04-09T22:14:19.505Z,10.83
2019-04-09T22:18:28.452Z,11.50
2019-04-09T22:22:36.889Z,11.30
2019-04-09T22:26:45.631Z,11.10
2019-04-09T22:30:54.799Z,11.53
2019-04-09T22:35:04.432Z,10.80
2019-04-09T22:39:13.897Z,11.00
2019-04-09T22:43:22.909Z,11.07
2019-04-09T22:47:31.476Z,11.60
2019-04-09T22:51:41.140Z,10.83
2019-04-09T22:55:49.684Z,11.93
2019-04-09T23:00:01.952Z,11.17
2019-04-09T23:04:34.447Z,10.33
2019-04-09T23:08:45.433Z,9.80
2019-04-09T23:12:58.332Z,9.30
2019-04-09T23:17:08.220Z,9.67
2019-04-09T23:21:19.153Z,9.37
2019-04-09T23:25:30.804Z,9.07
2019-04-09T23:29:41.144Z,9.47
2019-04-09T23:33:51.111Z,8.67
2019-04-09T23:38:00.639Z,9.53
2019-04-09T23:42:10.088Z,8.33
2019-04-09T23:46:21.351Z,11.60
2019-04-09T23:50:31.766Z,11.00
2019-04-09T23:54:42.442Z,11.70
2019-04-09T23:58:53.466Z,13.40
